Terminal Aerodrome Forecast
Issued by NWS Houston/Galveston, TX

Home | Current Version | Previous Version | Text Only | Print | Product List | Glossary On
Versions: 1 2 3 4 5 6 7 8 9 10 11 12 13 14 15 16 17 18
000
FTUS44 KHGX 251725
TAFCLL
TAF
KCLL 251725Z 2518/2618 18015G25KT P6SM SCT025 BKN035
      TEMPO 2518/2520 BKN025
     FM260200 17013G23KT P6SM BKN015 BKN025
     FM260900 18017G24KT P6SM OVC009
     FM261300 18010G18KT P6SM OVC007
     FM261400 19012G20KT P6SM OVC015
     FM261500 20016G23KT P6SM OVC025=

USA.gov is the U.S. government's official web portal to all federal, state and local government web resources and services.